createdAt,value
2019-04-07T00:00:44.444Z,7.66
2019-04-07T00:03:16.264Z,7.64
2019-04-07T00:05:48.269Z,7.68
2019-04-07T00:08:20.547Z,7.55
2019-04-07T00:10:52.849Z,7.43
2019-04-07T00:13:27.169Z,7.44
2019-04-07T00:15:59.066Z,7.33
2019-04-07T00:18:30.825Z,7.29
2019-04-07T00:21:02.811Z,7.12
2019-04-07T00:23:34.666Z,7.15
2019-04-07T00:26:06.444Z,7.17
2019-04-07T00:28:38.238Z,7.24
2019-04-07T00:31:11.338Z,7.33
2019-04-07T00:33:43.770Z,7.33
2019-04-07T00:36:15.626Z,7.40
2019-04-07T00:38:48.297Z,7.34
2019-04-07T00:41:20.982Z,7.27
2019-04-07T00:43:52.750Z,7.35
2019-04-07T00:46:24.522Z,7.42
2019-04-07T00:48:57.688Z,7.37
2019-04-07T00:51:29.515Z,7.33
2019-04-07T00:54:01.895Z,7.18
2019-04-07T00:56:33.763Z,7.14
2019-04-07T00:59:05.514Z,7.18
2019-04-07T01:01:37.383Z,7.22
2019-04-07T01:04:08.994Z,7.23
2019-04-07T01:06:40.795Z,7.18
2019-04-07T01:09:12.684Z,7.25
2019-04-07T01:11:44.416Z,7.27
2019-04-07T01:14:16.208Z,7.33
2019-04-07T01:16:48.700Z,7.33
2019-04-07T01:19:20.288Z,7.14
2019-04-07T01:21:52.132Z,6.98
2019-04-07T01:24:25.465Z,6.90
2019-04-07T01:26:58.915Z,6.97
2019-04-07T01:29:50.777Z,6.99
2019-04-07T01:32:24.005Z,7.11
2019-04-07T01:34:55.968Z,7.10
2019-04-07T01:37:28.995Z,7.17
2019-04-07T01:40:01.553Z,7.19
2019-04-07T01:42:43.403Z,7.22
2019-04-07T01:45:48.971Z,7.21
2019-04-07T01:48:37.978Z,7.18
2019-04-07T01:51:33.446Z,7.18
2019-04-07T01:54:26.323Z,7.21
2019-04-07T01:57:25.739Z,7.23
2019-04-07T02:00:09.560Z,7.24
2019-04-07T02:03:03.393Z,7.19
2019-04-07T02:05:59.851Z,7.00
2019-04-07T02:08:45.375Z,7.13
2019-04-07T02:11:38.621Z,7.07
2019-04-07T02:14:35.594Z,7.03
2019-04-07T02:17:13.092Z,7.08
2019-04-07T02:19:57.688Z,7.02
2019-04-07T02:22:57.663Z,6.90
2019-04-07T02:25:51.610Z,6.88
2019-04-07T02:28:35.152Z,6.88
2019-04-07T02:31:42.262Z,6.93
2019-04-07T02:34:42.877Z,7.01
2019-04-07T02:37:37.000Z,7.07
2019-04-07T02:40:34.322Z,7.07
2019-04-07T02:43:32.759Z,7.04
2019-04-07T02:46:20.421Z,7.11
2019-04-07T02:49:08.854Z,7.01
2019-04-07T02:52:02.461Z,7.13
2019-04-07T02:54:59.271Z,7.11
2019-04-07T02:57:40.383Z,7.20
2019-04-07T03:00:32.161Z,7.20
2019-04-07T03:03:21.396Z,7.25
2019-04-07T03:06:01.980Z,7.28
2019-04-07T03:09:08.902Z,7.34
2019-04-07T03:12:03.098Z,7.32
2019-04-07T03:14:47.585Z,7.34
2019-04-07T03:17:33.231Z,7.36
2019-04-07T03:20:21.703Z,7.40
2019-04-07T03:23:16.179Z,7.40
2019-04-07T03:26:16.388Z,7.41
2019-04-07T03:29:06.802Z,7.42
2019-04-07T03:31:59.752Z,7.46
2019-04-07T03:34:49.139Z,7.35
2019-04-07T03:37:49.402Z,7.42
2019-04-07T03:40:28.021Z,7.40
2019-04-07T03:43:05.104Z,7.42
2019-04-07T03:45:49.825Z,7.43
2019-04-07T03:48:30.390Z,7.52
2019-04-07T03:51:20.286Z,7.51
2019-04-07T03:54:24.199Z,7.51
2019-04-07T03:57:08.959Z,7.51
2019-04-07T03:59:59.514Z,7.49
2019-04-07T04:02:41.439Z,7.53
2019-04-07T04:05:33.190Z,7.56
2019-04-07T04:08:24.539Z,7.56
2019-04-07T04:11:18.510Z,7.65
2019-04-07T04:14:18.360Z,7.64
2019-04-07T04:16:52.128Z,7.65
2019-04-07T04:19:24.706Z,7.59
2019-04-07T04:21:56.730Z,7.44
2019-04-07T04:24:28.509Z,7.46
2019-04-07T04:27:02.649Z,7.40
2019-04-07T04:29:34.545Z,7.39
2019-04-07T04:32:06.314Z,7.45
2019-04-07T04:34:38.917Z,7.50
2019-04-07T04:37:11.290Z,7.50
2019-04-07T04:39:42.947Z,7.56
2019-04-07T04:42:16.171Z,7.60
2019-04-07T04:44:48.034Z,7.70
2019-04-07T04:47:21.870Z,7.80
2019-04-07T04:49:53.797Z,7.82
2019-04-07T04:52:25.476Z,7.83
2019-04-07T04:54:57.231Z,7.91
2019-04-07T04:57:29.456Z,8.05
2019-04-07T05:00:01.970Z,8.04
2019-04-07T05:02:34.797Z,8.03
2019-04-07T05:05:09.457Z,7.93
2019-04-07T05:07:54.036Z,7.96
2019-04-07T05:10:15.433Z,8.07
2019-04-07T05:12:48.240Z,8.12
2019-04-07T05:15:20.977Z,8.14
2019-04-07T05:17:52.946Z,8.28
2019-04-07T05:20:26.831Z,8.39
2019-04-07T05:23:00.054Z,8.52
2019-04-07T05:25:32.757Z,8.71
2019-04-07T05:28:05.815Z,8.70
2019-04-07T05:30:39.150Z,8.82
2019-04-07T05:33:11.108Z,8.91
2019-04-07T05:35:42.962Z,8.98
2019-04-07T05:38:15.969Z,9.01
2019-04-07T05:40:47.784Z,9.11
2019-04-07T05:43:20.040Z,9.14
2019-04-07T05:45:51.760Z,9.12
2019-04-07T05:48:23.795Z,9.22
2019-04-07T05:50:56.097Z,9.42
2019-04-07T05:53:29.876Z,9.39
2019-04-07T05:56:02.238Z,9.52
2019-04-07T05:58:37.465Z,9.61
2019-04-07T06:01:07.987Z,9.76
2019-04-07T06:03:42.829Z,9.88
2019-04-07T06:06:13.435Z,9.96
2019-04-07T06:08:47.017Z,9.91
2019-04-07T06:11:19.389Z,9.91
2019-04-07T06:13:51.947Z,9.87
2019-04-07T06:16:24.527Z,9.91
2019-04-07T06:18:56.670Z,10.06
2019-04-07T06:21:28.624Z,10.17
2019-04-07T06:24:01.451Z,10.16
2019-04-07T06:26:34.158Z,10.38
2019-04-07T06:29:06.954Z,10.54
2019-04-07T06:31:39.079Z,10.66
2019-04-07T06:34:12.005Z,10.73
2019-04-07T06:36:44.222Z,10.73
2019-04-07T06:39:18.133Z,10.57
2019-04-07T06:41:54.185Z,10.57
2019-04-07T06:44:26.110Z,10.63
2019-04-07T06:47:08.874Z,10.83
2019-04-07T06:49:59.640Z,10.97
2019-04-07T06:52:41.627Z,10.97
2019-04-07T06:55:33.051Z,11.54
2019-04-07T06:58:33.060Z,11.54
2019-04-07T07:01:29.752Z,11.78
2019-04-07T07:04:26.530Z,12.13
2019-04-07T07:07:23.660Z,12.03
2019-04-07T07:10:06.295Z,12.03
2019-04-07T07:13:02.873Z,12.02
2019-04-07T07:15:56.247Z,11.88
2019-04-07T07:18:48.757Z,11.66
2019-04-07T07:21:39.581Z,11.42
2019-04-07T07:24:15.421Z,11.47
2019-04-07T07:26:47.956Z,11.47
2019-04-07T07:29:19.857Z,11.46
2019-04-07T07:31:53.073Z,11.46
2019-04-07T07:34:25.859Z,11.43
2019-04-07T07:36:59.002Z,11.61
2019-04-07T07:39:32.045Z,11.92
2019-04-07T07:42:04.542Z,12.22
2019-04-07T07:44:39.786Z,12.35
2019-04-07T07:47:12.327Z,12.30
2019-04-07T07:49:44.389Z,12.45
2019-04-07T07:52:19.408Z,12.76
2019-04-07T07:54:49.711Z,13.03
2019-04-07T07:57:24.051Z,13.19
2019-04-07T07:59:58.532Z,13.32
2019-04-07T08:02:31.860Z,13.59
2019-04-07T08:05:04.238Z,13.69
2019-04-07T08:07:39.070Z,13.80
2019-04-07T08:10:10.957Z,14.21
2019-04-07T08:12:43.758Z,14.39
2019-04-07T08:15:15.767Z,14.55
2019-04-07T08:17:49.992Z,14.71
2019-04-07T08:20:22.148Z,14.96
2019-04-07T08:22:54.058Z,15.22
2019-04-07T08:25:28.143Z,15.01
2019-04-07T08:28:02.157Z,14.96
2019-04-07T08:30:33.881Z,15.30
2019-04-07T08:33:08.234Z,15.55
2019-04-07T08:35:41.263Z,15.77
2019-04-07T08:38:14.012Z,15.92
2019-04-07T08:40:46.815Z,16.03
2019-04-07T08:43:21.703Z,16.13
2019-04-07T08:45:52.560Z,16.46
2019-04-07T08:48:24.243Z,16.37
2019-04-07T08:50:58.807Z,16.12
2019-04-07T08:53:29.469Z,15.97
2019-04-07T08:56:01.068Z,15.71
2019-04-07T08:58:36.902Z,15.52
2019-04-07T09:01:06.394Z,15.58
2019-04-07T09:03:38.792Z,15.64
2019-04-07T09:06:11.006Z,15.60
2019-04-07T09:08:42.728Z,15.56
2019-04-07T09:11:20.642Z,15.50
2019-04-07T09:13:57.063Z,15.47
2019-04-07T09:16:33.695Z,15.78
2019-04-07T09:19:28.815Z,15.87
2019-04-07T09:22:30.656Z,16.22
2019-04-07T09:25:21.465Z,16.43
2019-04-07T09:28:15.235Z,16.88
2019-04-07T09:31:06.276Z,17.24
2019-04-07T09:33:57.199Z,17.18
2019-04-07T09:36:38.581Z,17.19
2019-04-07T09:39:50.702Z,16.80
2019-04-07T09:42:28.040Z,16.67
2019-04-07T09:45:18.486Z,16.53
2019-04-07T09:48:12.375Z,16.18
2019-04-07T09:51:08.610Z,15.94
2019-04-07T09:54:03.009Z,15.88
2019-04-07T09:57:08.642Z,15.78
2019-04-07T09:59:52.497Z,15.59
2019-04-07T10:02:39.409Z,15.28
2019-04-07T10:05:30.796Z,15.15
2019-04-07T10:08:42.130Z,14.85
2019-04-07T10:11:44.766Z,14.59
2019-04-07T10:14:42.581Z,14.41
2019-04-07T10:17:31.788Z,14.12
2019-04-07T10:20:31.475Z,13.97
2019-04-07T10:23:33.842Z,14.00
2019-04-07T10:26:17.829Z,13.81
2019-04-07T10:28:58.057Z,13.81
2019-04-07T10:32:06.779Z,13.74
2019-04-07T10:35:06.876Z,13.59
2019-04-07T10:37:46.072Z,13.57
2019-04-07T10:40:44.064Z,13.59
2019-04-07T10:43:37.202Z,13.65
2019-04-07T10:46:27.158Z,13.60
2019-04-07T10:49:17.009Z,13.71
2019-04-07T10:52:19.996Z,13.67
2019-04-07T10:55:13.183Z,13.73
2019-04-07T10:57:58.679Z,13.70
2019-04-07T11:01:00.893Z,13.66
2019-04-07T11:03:57.669Z,13.54
2019-04-07T11:06:51.793Z,13.58
2019-04-07T11:09:48.481Z,13.73
2019-04-07T11:12:37.894Z,13.64
2019-04-07T11:15:47.756Z,13.80
2019-04-07T11:18:38.429Z,13.85
2019-04-07T11:21:24.889Z,13.96
2019-04-07T11:24:24.021Z,14.16
2019-04-07T11:27:14.811Z,14.45
2019-04-07T11:30:09.648Z,14.66
2019-04-07T11:33:03.565Z,14.88
2019-04-07T11:35:43.298Z,15.18
2019-04-07T11:38:34.307Z,15.37
2019-04-07T11:41:26.184Z,15.49
2019-04-07T11:44:16.370Z,15.56
2019-04-07T11:47:07.700Z,15.66
2019-04-07T11:49:59.266Z,15.95
2019-04-07T11:52:37.124Z,16.19
2019-04-07T11:55:21.714Z,16.44
2019-04-07T11:58:15.993Z,16.63
2019-04-07T12:01:12.816Z,16.76
2019-04-07T12:04:17.156Z,16.77
2019-04-07T12:07:14.491Z,17.18
2019-04-07T12:10:04.092Z,17.80
2019-04-07T12:12:51.279Z,18.12
2019-04-07T12:15:33.582Z,18.30
2019-04-07T12:18:37.346Z,18.23
2019-04-07T12:21:38.257Z,18.42
2019-04-07T12:24:30.801Z,17.90
2019-04-07T12:27:31.476Z,17.57
2019-04-07T12:30:25.220Z,17.57
2019-04-07T12:33:12.095Z,17.73
2019-04-07T12:36:06.126Z,17.91
2019-04-07T12:39:06.094Z,17.91
2019-04-07T12:41:57.246Z,17.95
2019-04-07T12:45:03.735Z,17.99
2019-04-07T12:47:53.900Z,17.89
2019-04-07T12:50:54.129Z,17.91
2019-04-07T12:53:43.387Z,17.88
2019-04-07T12:56:40.682Z,17.86
2019-04-07T12:59:31.145Z,17.76
2019-04-07T13:02:19.187Z,17.18
2019-04-07T13:05:08.920Z,16.98
2019-04-07T13:08:02.745Z,16.79
2019-04-07T13:11:06.852Z,16.86
2019-04-07T13:14:01.405Z,16.74
2019-04-07T13:16:56.451Z,16.48
2019-04-07T13:19:35.976Z,16.21
2019-04-07T13:22:16.420Z,15.91
2019-04-07T13:25:18.815Z,15.69
2019-04-07T13:28:05.285Z,15.57
2019-04-07T13:30:54.668Z,15.64
2019-04-07T13:33:48.521Z,15.68
2019-04-07T13:36:47.929Z,15.66
2019-04-07T13:39:45.936Z,15.53
2019-04-07T13:42:26.716Z,15.48
2019-04-07T13:45:21.585Z,15.50
2019-04-07T13:48:05.980Z,15.30
2019-04-07T13:50:52.548Z,15.32
2019-04-07T13:53:43.241Z,15.32
2019-04-07T13:56:31.873Z,15.34
2019-04-07T13:59:31.696Z,15.36
2019-04-07T14:02:14.305Z,15.27
2019-04-07T14:05:05.227Z,15.17
2019-04-07T14:08:11.742Z,15.14
2019-04-07T14:11:11.087Z,15.04
2019-04-07T14:14:01.385Z,14.97
2019-04-07T14:16:43.032Z,14.90
2019-04-07T14:19:37.200Z,14.75
2019-04-07T14:22:16.770Z,14.61
2019-04-07T14:24:56.967Z,14.74
2019-04-07T14:27:57.861Z,14.57
2019-04-07T14:30:42.195Z,14.54
2019-04-07T14:33:31.837Z,14.68
2019-04-07T14:36:21.927Z,14.66
2019-04-07T14:39:11.791Z,14.50
2019-04-07T14:42:04.774Z,14.39
2019-04-07T14:44:43.416Z,14.37
2019-04-07T14:47:39.664Z,14.25
2019-04-07T14:50:17.004Z,14.26
2019-04-07T14:53:07.761Z,14.17
2019-04-07T14:56:04.299Z,13.71
2019-04-07T14:59:09.282Z,13.71
2019-04-07T15:02:06.260Z,13.41
2019-04-07T15:04:49.225Z,13.31
2019-04-07T15:07:48.401Z,13.14
2019-04-07T15:10:24.422Z,12.94
2019-04-07T15:12:59.995Z,12.84
2019-04-07T15:15:32.478Z,12.72
2019-04-07T15:18:05.082Z,12.54
2019-04-07T15:20:37.871Z,12.44
2019-04-07T15:23:10.074Z,12.61
2019-04-07T15:25:44.138Z,12.75
2019-04-07T15:28:15.532Z,12.78
2019-04-07T15:30:49.132Z,12.63
2019-04-07T15:33:21.127Z,12.27
2019-04-07T15:35:53.484Z,12.18
2019-04-07T15:38:27.205Z,12.13
2019-04-07T15:40:59.910Z,12.16
2019-04-07T15:43:34.910Z,12.00
2019-04-07T15:46:09.515Z,11.93
2019-04-07T15:48:41.985Z,11.89
2019-04-07T15:51:14.419Z,11.90
2019-04-07T15:53:51.305Z,11.72
2019-04-07T15:56:21.340Z,11.43
2019-04-07T15:58:53.308Z,11.26
2019-04-07T16:01:28.031Z,11.26
2019-04-07T16:04:01.627Z,11.25
2019-04-07T16:06:35.725Z,11.23
2019-04-07T16:09:13.955Z,11.26
2019-04-07T16:11:44.579Z,11.08
2019-04-07T16:14:16.604Z,10.96
2019-04-07T16:16:51.664Z,11.00
2019-04-07T16:19:35.071Z,10.98
2019-04-07T16:21:57.283Z,10.97
2019-04-07T16:24:29.268Z,10.79
2019-04-07T16:27:03.321Z,10.57
2019-04-07T16:29:35.104Z,10.63
2019-04-07T16:32:07.078Z,10.67
2019-04-07T16:34:41.414Z,10.67
2019-04-07T16:37:12.347Z,10.81
2019-04-07T16:39:44.619Z,10.55
2019-04-07T16:42:17.342Z,10.67
2019-04-07T16:44:50.531Z,10.60
2019-04-07T16:47:24.884Z,10.70
2019-04-07T16:49:55.889Z,10.76
2019-04-07T16:52:32.909Z,10.83
2019-04-07T16:55:02.387Z,10.83
2019-04-07T16:57:35.329Z,10.63
2019-04-07T17:00:13.371Z,10.68
2019-04-07T17:02:46.079Z,10.89
2019-04-07T17:05:21.436Z,10.65
2019-04-07T17:07:52.168Z,10.65
2019-04-07T17:10:29.628Z,10.44
2019-04-07T17:13:00.781Z,10.42
2019-04-07T17:15:34.914Z,10.19
2019-04-07T17:18:10.232Z,10.05
2019-04-07T17:20:42.378Z,10.00
2019-04-07T17:23:21.327Z,10.02
2019-04-07T17:25:52.950Z,9.93
2019-04-07T17:28:24.446Z,9.89
2019-04-07T17:30:58.779Z,9.82
2019-04-07T17:33:32.610Z,9.82
2019-04-07T17:36:03.491Z,9.80
2019-04-07T17:38:54.173Z,9.88
2019-04-07T17:41:25.949Z,9.94
2019-04-07T17:44:16.042Z,10.06
2019-04-07T17:47:05.924Z,10.12
2019-04-07T17:50:15.032Z,10.01
2019-04-07T17:53:14.038Z,9.85
2019-04-07T17:56:01.295Z,9.85
2019-04-07T17:58:51.317Z,9.62
2019-04-07T18:01:32.580Z,9.71
2019-04-07T18:04:36.090Z,9.76
2019-04-07T18:07:23.379Z,9.94
2019-04-07T18:10:13.890Z,10.09
2019-04-07T18:13:00.066Z,10.27
2019-04-07T18:15:49.887Z,10.28
2019-04-07T18:18:33.441Z,10.31
2019-04-07T18:21:23.191Z,10.25
